createdAt,value
2018-08-19T00:01:08.576Z,16.23
2018-08-19T00:03:36.971Z,16.16
2018-08-19T00:06:05.615Z,16.23
2018-08-19T00:08:34.047Z,16.20
2018-08-19T00:11:05.684Z,16.23
2018-08-19T00:13:34.549Z,16.26
2018-08-19T00:16:02.997Z,16.25
2018-08-19T00:18:31.462Z,16.27
2018-08-19T00:20:59.944Z,16.32
2018-08-19T00:23:35.083Z,16.29
2018-08-19T00:26:03.961Z,16.09
2018-08-19T00:28:32.348Z,16.09
2018-08-19T00:31:00.793Z,16.14
2018-08-19T00:33:29.280Z,16.15
2018-08-19T00:35:57.729Z,16.15
2018-08-19T00:38:26.145Z,16.11
2018-08-19T00:40:54.585Z,16.11
2018-08-19T00:43:23.001Z,16.14
2018-08-19T00:45:51.401Z,16.17
2018-08-19T00:48:19.781Z,16.15
2018-08-19T00:50:48.210Z,16.02
2018-08-19T00:53:16.669Z,16.02
2018-08-19T00:55:50.156Z,16.03
2018-08-19T00:58:20.625Z,16.06
2018-08-19T01:00:49.117Z,16.03
2018-08-19T01:03:17.574Z,16.03
2018-08-19T01:05:46.006Z,16.00
2018-08-19T01:08:15.035Z,16.03
2018-08-19T01:10:43.697Z,15.86
2018-08-19T01:13:13.217Z,15.76
2018-08-19T01:15:41.699Z,15.53
2018-08-19T01:18:10.262Z,15.47
2018-08-19T01:20:38.723Z,15.52
2018-08-19T01:23:07.208Z,15.52
2018-08-19T01:25:35.677Z,15.38
2018-08-19T01:28:04.210Z,15.43
2018-08-19T01:30:32.750Z,15.36
2018-08-19T01:33:01.282Z,15.19
2018-08-19T01:35:37.764Z,14.95
2018-08-19T01:38:07.416Z,14.80
2018-08-19T01:40:35.922Z,14.76
2018-08-19T01:43:05.857Z,14.73
2018-08-19T01:45:34.633Z,14.76
2018-08-19T01:48:03.197Z,14.82
2018-08-19T01:50:31.654Z,14.81
2018-08-19T01:53:00.144Z,14.91
2018-08-19T01:55:30.493Z,14.90
2018-08-19T01:57:59.041Z,14.91
2018-08-19T02:00:27.457Z,14.87
2018-08-19T02:03:00.865Z,14.82
2018-08-19T02:05:29.345Z,14.70
2018-08-19T02:08:01.526Z,14.72
2018-08-19T02:10:31.113Z,14.68
2018-08-19T02:13:00.062Z,14.68
2018-08-19T02:15:29.562Z,14.62
2018-08-19T02:18:02.069Z,14.56
2018-08-19T02:20:35.689Z,14.48
2018-08-19T02:23:05.414Z,14.32
2018-08-19T02:25:38.082Z,14.27
2018-08-19T02:28:07.976Z,14.25
2018-08-19T02:31:00.061Z,14.28
2018-08-19T02:33:31.821Z,14.21
2018-08-19T02:36:03.197Z,14.14
2018-08-19T02:38:31.994Z,14.19
2018-08-19T02:41:00.440Z,14.17
2018-08-19T02:43:28.964Z,14.27
2018-08-19T02:45:57.475Z,14.26
2018-08-19T02:48:44.632Z,14.18
2018-08-19T02:51:16.381Z,14.19
2018-08-19T02:53:45.944Z,14.09
2018-08-19T02:56:15.191Z,14.11
2018-08-19T02:58:44.453Z,14.02
2018-08-19T03:01:13.882Z,13.91
2018-08-19T03:03:42.302Z,13.85
2018-08-19T03:06:10.823Z,13.85
2018-08-19T03:08:46.950Z,13.77
2018-08-19T03:11:18.118Z,13.74
2018-08-19T03:13:46.645Z,13.75
2018-08-19T03:16:15.082Z,13.78
2018-08-19T03:18:43.550Z,13.72
2018-08-19T03:21:12.047Z,13.73
2018-08-19T03:23:40.474Z,13.76
2018-08-19T03:26:08.932Z,13.72
2018-08-19T03:28:37.416Z,13.75
2018-08-19T03:31:06.009Z,13.78
2018-08-19T03:33:34.440Z,13.80
2018-08-19T03:36:02.976Z,13.81
2018-08-19T03:38:31.419Z,13.91
2018-08-19T03:40:59.881Z,13.88
2018-08-19T03:43:28.537Z,13.88
2018-08-19T03:45:58.580Z,13.87
2018-08-19T03:48:27.149Z,13.92
2018-08-19T03:50:55.645Z,13.86
2018-08-19T03:53:24.123Z,13.85
2018-08-19T03:55:52.585Z,13.81
2018-08-19T03:58:20.975Z,13.86
2018-08-19T04:00:49.461Z,13.86
2018-08-19T04:03:23.028Z,13.89
2018-08-19T04:05:54.507Z,13.89
2018-08-19T04:08:26.459Z,13.88
2018-08-19T04:10:54.906Z,13.87
2018-08-19T04:13:31.214Z,13.85
2018-08-19T04:16:00.773Z,13.87
2018-08-19T04:18:34.386Z,13.75
2018-08-19T04:21:06.044Z,13.76
2018-08-19T04:23:34.815Z,13.72
2018-08-19T04:26:03.810Z,13.77
2018-08-19T04:28:35.733Z,13.83
2018-08-19T04:31:36.421Z,13.90
2018-08-19T04:34:04.843Z,13.92
2018-08-19T04:36:33.309Z,13.97
2018-08-19T04:39:01.721Z,13.92
2018-08-19T04:41:30.245Z,13.94
2018-08-19T04:43:58.679Z,13.91
2018-08-19T04:46:27.117Z,13.92
2018-08-19T04:48:55.525Z,13.95
2018-08-19T04:51:24.293Z,14.00
2018-08-19T04:53:52.708Z,14.04
2018-08-19T04:56:21.136Z,14.06
2018-08-19T04:58:49.531Z,14.12
2018-08-19T05:01:18.048Z,14.12
2018-08-19T05:03:46.837Z,14.17
2018-08-19T05:06:15.314Z,14.30
2018-08-19T05:08:43.718Z,14.36
2018-08-19T05:11:12.128Z,14.38
2018-08-19T05:13:40.603Z,14.46
2018-08-19T05:16:09.057Z,14.47
2018-08-19T05:18:37.511Z,14.46
2018-08-19T05:21:20.261Z,14.51
2018-08-19T05:23:49.142Z,14.62
2018-08-19T05:26:17.539Z,14.78
2018-08-19T05:29:09.994Z,14.89
2018-08-19T05:31:46.809Z,14.96
2018-08-19T05:34:20.592Z,14.93
2018-08-19T05:36:50.393Z,15.04
2018-08-19T05:39:19.029Z,15.10
2018-08-19T05:42:01.649Z,15.25
2018-08-19T05:44:36.753Z,15.38
2018-08-19T05:47:07.906Z,15.48
2018-08-19T05:49:38.201Z,15.60
2018-08-19T05:52:10.883Z,15.80
2018-08-19T05:54:44.785Z,15.91
2018-08-19T05:57:14.209Z,16.03
2018-08-19T05:59:42.621Z,16.12
2018-08-19T06:02:11.094Z,16.26
2018-08-19T06:04:39.573Z,16.36
2018-08-19T06:07:08.037Z,16.43
2018-08-19T06:09:36.582Z,16.57
2018-08-19T06:12:05.429Z,16.70
2018-08-19T06:14:33.945Z,16.73
2018-08-19T06:17:04.593Z,16.76
2018-08-19T06:19:33.806Z,17.02
2018-08-19T06:22:02.507Z,17.10
2018-08-19T06:24:30.944Z,17.11
2018-08-19T06:26:59.398Z,17.27
2018-08-19T06:29:44.795Z,17.44
2018-08-19T06:32:17.267Z,17.37
2018-08-19T06:34:45.884Z,17.66
2018-08-19T06:37:14.259Z,17.73
2018-08-19T06:39:43.608Z,17.87
2018-08-19T06:42:12.403Z,17.84
2018-08-19T06:44:41.082Z,17.68
2018-08-19T06:47:10.090Z,17.75
2018-08-19T06:49:43.493Z,17.87
2018-08-19T06:52:12.331Z,17.89
2018-08-19T06:54:40.793Z,18.01
2018-08-19T06:57:09.913Z,18.40
2018-08-19T06:59:38.669Z,18.45
2018-08-19T07:02:08.128Z,18.38
2018-08-19T07:04:42.167Z,18.18
2018-08-19T07:07:12.920Z,18.31
2018-08-19T07:09:42.320Z,18.75
2018-08-19T07:12:15.789Z,18.76
2018-08-19T07:14:44.814Z,18.80
2018-08-19T07:17:13.414Z,18.94
2018-08-19T07:19:41.919Z,19.02
2018-08-19T07:22:10.864Z,19.09
2018-08-19T07:24:40.421Z,19.75
2018-08-19T07:27:10.211Z,19.96
2018-08-19T07:29:38.781Z,19.98
2018-08-19T07:32:08.334Z,19.44
2018-08-19T07:34:36.785Z,19.37
2018-08-19T07:37:05.326Z,19.53
2018-08-19T07:39:40.002Z,19.38
2018-08-19T07:42:12.148Z,20.06
2018-08-19T07:44:40.671Z,20.22
2018-08-19T07:47:09.209Z,19.99
2018-08-19T07:49:37.660Z,19.96
2018-08-19T07:52:06.481Z,20.15
2018-08-19T07:54:34.945Z,19.90
2018-08-19T07:57:10.682Z,20.03
2018-08-19T07:59:39.126Z,20.43
2018-08-19T08:02:08.127Z,20.20
2018-08-19T08:04:43.630Z,20.47
2018-08-19T08:07:13.205Z,20.79
2018-08-19T08:09:42.217Z,21.11
2018-08-19T08:12:11.969Z,21.11
2018-08-19T08:14:44.875Z,21.08
2018-08-19T08:17:13.405Z,21.12
2018-08-19T08:19:47.409Z,21.12
2018-08-19T08:22:15.989Z,20.60
2018-08-19T08:24:44.887Z,20.79
2018-08-19T08:27:13.498Z,20.80
2018-08-19T08:29:42.087Z,21.45
2018-08-19T08:32:10.692Z,21.19
2018-08-19T08:34:39.198Z,21.77
2018-08-19T08:37:08.341Z,21.87
2018-08-19T08:39:37.714Z,21.91
2018-08-19T08:42:06.754Z,21.62
2018-08-19T08:44:35.307Z,21.49
2018-08-19T08:47:07.155Z,21.47
2018-08-19T08:49:40.841Z,21.61
2018-08-19T08:52:21.641Z,21.70
2018-08-19T08:54:53.076Z,21.36
2018-08-19T08:57:22.502Z,21.73
2018-08-19T08:59:51.589Z,21.82
2018-08-19T09:02:20.241Z,21.71
2018-08-19T09:04:49.321Z,21.92
2018-08-19T09:07:17.982Z,21.45
2018-08-19T09:09:47.364Z,21.90
2018-08-19T09:12:16.541Z,22.09
2018-08-19T09:14:45.445Z,22.13
2018-08-19T09:17:14.057Z,21.84
2018-08-19T09:19:43.649Z,22.35
2018-08-19T09:22:12.778Z,22.06
2018-08-19T09:24:41.722Z,22.10
2018-08-19T09:27:10.332Z,22.28
2018-08-19T09:29:38.754Z,22.83
2018-08-19T09:32:07.262Z,22.87
2018-08-19T09:34:35.689Z,23.09
2018-08-19T09:37:04.201Z,23.05
2018-08-19T09:39:32.706Z,22.83
2018-08-19T09:42:08.278Z,22.85
2018-08-19T09:44:37.418Z,22.65
2018-08-19T09:47:06.286Z,22.74
2018-08-19T09:49:34.960Z,22.41
2018-08-19T09:52:03.554Z,22.81
2018-08-19T09:54:34.693Z,22.64
2018-08-19T09:57:03.704Z,22.85
2018-08-19T09:59:32.155Z,23.09
2018-08-19T10:02:05.090Z,23.02
2018-08-19T10:04:33.999Z,23.09
2018-08-19T10:07:06.658Z,23.04
2018-08-19T10:09:35.189Z,23.37
2018-08-19T10:12:03.855Z,22.79
2018-08-19T10:14:32.342Z,22.82
2018-08-19T10:17:00.900Z,22.87
2018-08-19T10:19:29.351Z,22.71
2018-08-19T10:21:57.809Z,22.93
2018-08-19T10:24:27.946Z,23.37
2018-08-19T10:26:56.777Z,23.44
2018-08-19T10:29:25.217Z,23.79
2018-08-19T10:31:55.264Z,23.61
2018-08-19T10:34:31.059Z,24.00
2018-08-19T10:37:00.194Z,24.32
2018-08-19T10:39:28.621Z,24.37
2018-08-19T10:42:17.469Z,24.26
2018-08-19T10:44:47.565Z,24.57
2018-08-19T10:47:16.169Z,24.26
2018-08-19T10:49:54.647Z,24.00
2018-08-19T10:52:27.058Z,24.21
2018-08-19T10:54:56.913Z,24.33
2018-08-19T10:57:25.469Z,24.71
2018-08-19T10:59:56.075Z,24.54
2018-08-19T11:02:24.639Z,24.81
2018-08-19T11:04:56.104Z,25.00
2018-08-19T11:07:24.597Z,24.64
2018-08-19T11:10:09.641Z,24.87
2018-08-19T11:12:38.119Z,24.91
2018-08-19T11:15:16.565Z,25.01
2018-08-19T11:17:45.083Z,25.51
2018-08-19T11:20:13.683Z,25.62
2018-08-19T11:22:42.254Z,25.18
2018-08-19T11:25:11.001Z,25.29
2018-08-19T11:27:39.456Z,25.54
2018-08-19T11:30:07.998Z,24.89
2018-08-19T11:32:37.397Z,25.03
2018-08-19T11:35:06.365Z,25.11
2018-08-19T11:37:34.823Z,25.49
2018-08-19T11:40:03.352Z,25.41
2018-08-19T11:42:31.886Z,25.69
2018-08-19T11:45:00.393Z,25.72
2018-08-19T11:47:28.829Z,26.25
2018-08-19T11:49:57.307Z,26.71
2018-08-19T11:52:25.724Z,26.41
2018-08-19T11:54:54.135Z,26.51
2018-08-19T11:57:23.852Z,27.02
2018-08-19T11:59:54.141Z,26.77
2018-08-19T12:02:23.989Z,26.44
2018-08-19T12:05:00.825Z,26.49
2018-08-19T12:07:29.282Z,26.60
2018-08-19T12:10:01.448Z,26.92
2018-08-19T12:12:43.222Z,26.83
2018-08-19T12:15:11.803Z,27.01
2018-08-19T12:17:40.380Z,27.07
2018-08-19T12:20:09.209Z,27.10
2018-08-19T12:22:38.931Z,26.90
2018-08-19T12:25:07.449Z,26.94
2018-08-19T12:27:35.984Z,27.30
2018-08-19T12:30:11.685Z,27.69
2018-08-19T12:32:40.114Z,27.88
2018-08-19T12:35:08.585Z,27.57
2018-08-19T12:37:37.068Z,27.47
2018-08-19T12:40:06.150Z,27.61
2018-08-19T12:42:40.447Z,27.82
2018-08-19T12:45:09.132Z,28.26
2018-08-19T12:47:38.001Z,28.47
2018-08-19T12:50:08.327Z,27.81
2018-08-19T12:52:36.869Z,28.02
2018-08-19T12:55:18.907Z,27.94
2018-08-19T12:57:51.727Z,28.01
2018-08-19T13:00:23.157Z,28.32
2018-08-19T13:02:52.515Z,28.82
2018-08-19T13:05:21.311Z,28.54
2018-08-19T13:07:49.879Z,28.80
2018-08-19T13:10:18.808Z,28.49
2018-08-19T13:12:52.015Z,28.50
2018-08-19T13:15:20.589Z,29.49
2018-08-19T13:17:49.009Z,28.47
2018-08-19T13:20:17.412Z,28.75
2018-08-19T13:22:51.855Z,29.75
2018-08-19T13:25:21.677Z,30.67
2018-08-19T13:27:50.236Z,31.32
2018-08-19T13:30:19.453Z,30.40
2018-08-19T13:32:48.490Z,30.36
2018-08-19T13:35:16.918Z,30.15
2018-08-19T13:37:45.590Z,31.44
2018-08-19T13:40:14.772Z,30.90
2018-08-19T13:42:43.481Z,31.06
2018-08-19T13:45:21.370Z,30.88
2018-08-19T13:47:54.201Z,31.96
2018-08-19T13:50:22.682Z,32.81
2018-08-19T13:52:51.097Z,32.81
2018-08-19T13:55:20.504Z,32.53
2018-08-19T13:57:48.950Z,31.89
2018-08-19T14:00:22.046Z,33.05
2018-08-19T14:02:50.913Z,31.70
2018-08-19T14:05:19.401Z,33.37
2018-08-19T14:07:48.888Z,32.86
2018-08-19T14:10:33.130Z,32.58
2018-08-19T14:13:01.695Z,32.28
2018-08-19T14:15:30.136Z,32.32
2018-08-19T14:17:58.618Z,31.94
2018-08-19T14:20:27.792Z,32.40
2018-08-19T14:22:56.247Z,32.27
2018-08-19T14:25:24.682Z,32.86
2018-08-19T14:27:53.127Z,32.48
2018-08-19T14:30:21.655Z,31.89
2018-08-19T14:32:50.055Z,33.23
2018-08-19T14:35:18.499Z,33.17
2018-08-19T14:37:46.919Z,32.33
2018-08-19T14:40:18.301Z,32.23
2018-08-19T14:42:46.681Z,32.66
2018-08-19T14:45:15.293Z,33.11
2018-08-19T14:47:43.729Z,31.88
2018-08-19T14:50:16.465Z,32.49
2018-08-19T14:52:45.005Z,31.97
2018-08-19T14:55:13.545Z,32.25
2018-08-19T14:57:41.980Z,32.02
2018-08-19T15:00:12.487Z,32.49
2018-08-19T15:02:41.165Z,31.46
2018-08-19T15:05:15.752Z,31.02
2018-08-19T15:07:44.624Z,31.58
2018-08-19T15:10:16.799Z,30.77
2018-08-19T15:12:45.261Z,32.07
2018-08-19T15:15:13.722Z,32.62
2018-08-19T15:17:46.443Z,31.93
2018-08-19T15:20:37.730Z,32.30
2018-08-19T15:23:18.138Z,32.33
2018-08-19T15:25:46.671Z,33.28
2018-08-19T15:28:15.393Z,33.32
2018-08-19T15:30:44.915Z,33.37
2018-08-19T15:33:14.271Z,32.33
2018-08-19T15:35:43.258Z,32.94
2018-08-19T15:38:12.369Z,34.11
2018-08-19T15:40:44.640Z,32.65
2018-08-19T15:43:13.588Z,32.21
2018-08-19T15:45:42.754Z,33.30
2018-08-19T15:48:11.429Z,33.37
2018-08-19T15:50:39.934Z,33.26
2018-08-19T16:00:09.228Z,33.59
2018-08-19T16:02:37.933Z,33.28
2018-08-19T16:05:11.350Z,32.85
2018-08-19T16:07:39.946Z,32.31
2018-08-19T16:10:08.411Z,32.47
2018-08-19T16:12:40.460Z,32.08
2018-08-19T16:15:12.900Z,32.89
2018-08-19T16:17:41.342Z,32.89
2018-08-19T16:20:09.752Z,32.06
2018-08-19T16:22:38.227Z,32.19
2018-08-19T16:25:06.719Z,31.85
2018-08-19T16:27:35.365Z,31.22
2018-08-19T16:30:03.895Z,31.09
2018-08-19T16:32:44.836Z,31.18
2018-08-19T16:35:13.690Z,31.24
2018-08-19T16:37:42.365Z,30.99
2018-08-19T16:40:12.409Z,30.86
2018-08-19T16:42:41.602Z,30.82
2018-08-19T16:45:11.224Z,31.19
2018-08-19T16:47:40.128Z,31.12
2018-08-19T16:50:10.903Z,30.34
2018-08-19T16:52:39.418Z,29.80
2018-08-19T16:55:08.348Z,29.18
2018-08-19T16:57:38.862Z,28.94
2018-08-19T17:00:08.649Z,28.54
2018-08-19T17:02:37.190Z,28.39
2018-08-19T17:05:15.526Z,28.17
2018-08-19T17:07:44.614Z,27.94
2018-08-19T17:10:19.815Z,27.91
2018-08-19T17:12:48.233Z,27.75
2018-08-19T17:15:16.730Z,27.72
2018-08-19T17:17:45.195Z,27.65
2018-08-19T17:20:13.628Z,27.58
2018-08-19T17:22:42.202Z,27.55
2018-08-19T17:25:10.682Z,27.40
2018-08-19T17:27:39.102Z,27.41
2018-08-19T17:30:15.746Z,27.39
2018-08-19T17:32:44.366Z,27.24
2018-08-19T17:35:13.939Z,27.20
2018-08-19T17:37:42.301Z,27.08
2018-08-19T17:40:10.773Z,27.01
2018-08-19T17:42:39.234Z,26.92
2018-08-19T17:45:07.971Z,26.88
2018-08-19T17:47:36.544Z,26.83
2018-08-19T17:50:05.488Z,26.75
2018-08-19T17:52:33.950Z,26.72
2018-08-19T17:55:02.730Z,26.64
2018-08-19T17:57:32.217Z,26.55
2018-08-19T18:00:00.709Z,26.44
2018-08-19T18:02:30.317Z,26.32
2018-08-19T18:04:59.142Z,26.25
2018-08-19T18:07:28.596Z,26.16
2018-08-19T18:09:59.112Z,26.13
2018-08-19T18:12:27.545Z,26.04
2018-08-19T18:14:56.195Z,25.95
2018-08-19T18:17:24.738Z,25.89
2018-08-19T18:19:53.339Z,25.84
2018-08-19T18:22:22.259Z,25.73
2018-08-19T18:24:55.936Z,25.67
2018-08-19T18:27:24.384Z,25.61
2018-08-19T18:29:52.886Z,25.54
2018-08-19T18:32:23.163Z,25.43
2018-08-19T18:34:51.622Z,25.34
2018-08-19T18:37:20.059Z,25.28
2018-08-19T18:39:48.539Z,25.18
2018-08-19T18:42:30.994Z,25.14
2018-08-19T18:45:01.334Z,25.06
2018-08-19T18:47:29.789Z,24.97
2018-08-19T18:49:58.253Z,24.85
2018-08-19T18:52:26.741Z,24.80
2018-08-19T18:55:09.278Z,24.79
2018-08-19T18:57:42.141Z,24.68
2018-08-19T19:00:12.050Z,24.60
2018-08-19T19:02:45.133Z,24.58
2018-08-19T19:05:26.441Z,24.55
2018-08-19T19:07:57.131Z,24.43
2018-08-19T19:10:25.647Z,24.40
2018-08-19T19:12:54.234Z,24.46
2018-08-19T19:15:22.826Z,24.37
2018-08-19T19:17:51.453Z,24.37
2018-08-19T19:20:19.889Z,24.40
2018-08-19T19:22:53.570Z,24.38
2018-08-19T19:25:26.562Z,24.36
2018-08-19T19:27:55.010Z,24.33
2018-08-19T19:30:23.425Z,24.25
2018-08-19T19:32:55.470Z,24.22
2018-08-19T19:35:26.053Z,24.19
2018-08-19T19:37:54.501Z,24.10
2018-08-19T19:40:23.064Z,24.07
2018-08-19T19:42:51.513Z,23.97
2018-08-19T19:45:20.114Z,23.94
2018-08-19T19:47:48.550Z,23.86
2018-08-19T19:50:16.981Z,23.83
2018-08-19T19:52:54.681Z,23.75
2018-08-19T19:55:24.333Z,23.67
2018-08-19T19:57:52.818Z,23.60
2018-08-19T20:00:21.273Z,23.58
2018-08-19T20:02:54.765Z,23.50
2018-08-19T20:08:16.197Z,23.26
2018-08-19T20:10:44.693Z,22.97
2018-08-19T20:13:32.571Z,22.80
2018-08-19T20:16:01.047Z,22.75
2018-08-19T20:18:29.566Z,22.91
2018-08-19T20:20:58.083Z,22.93
2018-08-19T20:23:26.633Z,22.95
2018-08-19T20:25:55.829Z,23.02
2018-08-19T20:28:24.314Z,23.00
2018-08-19T20:30:52.786Z,22.94
2018-08-19T20:33:26.437Z,22.89
2018-08-19T20:35:55.641Z,22.80
2018-08-19T20:38:24.689Z,22.78
2018-08-19T20:40:53.459Z,22.69
2018-08-19T20:43:24.546Z,22.63
2018-08-19T20:45:53.007Z,22.53
2018-08-19T20:48:22.432Z,22.52
2018-08-19T20:50:51.153Z,22.49
2018-08-19T20:53:19.742Z,22.42
2018-08-19T20:55:50.212Z,22.39
2018-08-19T20:58:18.613Z,22.43
2018-08-19T21:00:47.026Z,22.38
2018-08-19T21:03:15.434Z,22.29
2018-08-19T21:05:43.862Z,22.21
2018-08-19T21:08:15.979Z,22.21
2018-08-19T21:10:45.373Z,22.02
2018-08-19T21:13:14.985Z,21.83
2018-08-19T21:15:44.626Z,21.63
2018-08-19T21:18:13.077Z,21.49
2018-08-19T21:20:41.517Z,21.47
2018-08-19T21:23:10.950Z,21.33
2018-08-19T21:25:44.578Z,21.29
2018-08-19T21:28:13.425Z,21.18
2018-08-19T21:30:41.860Z,21.16
2018-08-19T21:33:10.273Z,21.18
2018-08-19T21:35:43.821Z,21.05
2018-08-19T21:38:12.273Z,21.00
2018-08-19T21:40:40.751Z,20.92
2018-08-19T21:43:09.486Z,20.85
2018-08-19T21:45:38.400Z,20.80
2018-08-19T21:48:11.251Z,20.64
2018-08-19T21:50:39.764Z,20.76
2018-08-19T21:53:10.469Z,20.58
2018-08-19T21:55:40.266Z,20.61
2018-08-19T21:58:08.802Z,20.63
2018-08-19T22:00:45.594Z,20.55
2018-08-19T22:03:21.293Z,20.59
2018-08-19T22:05:51.914Z,20.44
2018-08-19T22:08:22.335Z,20.55
2018-08-19T22:12:19.950Z,20.41
2018-08-19T22:14:48.391Z,20.41
2018-08-19T22:17:16.934Z,20.30
2018-08-19T22:19:51.104Z,20.25
2018-08-19T22:22:19.571Z,20.16
2018-08-19T22:24:48.044Z,20.03
2018-08-19T22:27:17.776Z,20.09
2018-08-19T22:29:46.323Z,20.01
2018-08-19T22:32:14.768Z,19.95
2018-08-19T22:34:43.321Z,19.88
2018-08-19T22:37:11.820Z,19.89
2018-08-19T22:39:40.263Z,19.89
2018-08-19T22:42:08.773Z,19.91
2018-08-19T22:44:37.241Z,19.90
2018-08-19T22:47:05.734Z,19.91
2018-08-19T22:49:34.214Z,19.89
2018-08-19T22:52:20.749Z,19.79
2018-08-19T22:54:51.549Z,19.72
2018-08-19T22:57:20.118Z,19.74
2018-08-19T22:59:48.542Z,19.56
2018-08-19T23:02:17.329Z,19.77
2018-08-19T23:10:50.841Z,19.79
2018-08-19T23:13:33.685Z,19.80
2018-08-19T23:16:04.848Z,19.85
2018-08-19T23:18:33.309Z,19.83
2018-08-19T23:21:02.922Z,19.77
2018-08-19T23:23:32.302Z,19.73
2018-08-19T23:26:00.825Z,19.59
2018-08-19T23:28:29.429Z,19.39
2018-08-19T23:30:58.152Z,19.37
2018-08-19T23:33:27.125Z,19.38
2018-08-19T23:35:55.699Z,19.39
2018-08-19T23:38:24.199Z,19.34
2018-08-19T23:40:52.655Z,19.22
2018-08-19T23:43:21.134Z,19.21
2018-08-19T23:45:49.682Z,19.27
2018-08-19T23:48:18.122Z,19.26
2018-08-19T23:50:46.548Z,19.25
2018-08-19T23:53:14.968Z,19.32
2018-08-19T23:55:43.367Z,19.13
2018-08-19T23:58:11.799Z,19.14
